Time;durP1;ratioP1;P1;durP2;ratioP2;P2;SDS_P1;SDS_P2;PMS_P1;PMS_P2;Temp;Humidity;BMP_temperature;BMP_pressure;BME280_temperature;BME280_humidity;BME280_pressure;Samples;Min_cycle;Max_cycle;Signal;HPM_P1;HPM_P2
2021/03/07 00:00:26;;;;;;;5.83;3.33;;;;;;;1.26;84.03;101950.47;5064783;28;20436;-73
2021/03/07 00:02:52;;;;;;;6.23;3.30;;;;;;;1.27;83.81;101947.09;5064722;28;20195;-71
2021/03/07 00:05:20;;;;;;;4.27;2.90;;;;;;;1.27;84.10;101947.09;5063494;28;20240;-72
2021/03/07 00:07:47;;;;;;;4.27;3.37;;;;;;;1.27;84.29;101941.09;5063637;28;20846;-73
2021/03/07 00:10:15;;;;;;;5.37;3.20;;;;;;;1.27;84.25;101941.09;5067922;28;20190;-73
2021/03/07 00:12:41;;;;;;;5.03;3.40;;;;;;;1.28;84.39;101937.69;5062964;28;20209;-73
2021/03/07 00:15:10;;;;;;;6.03;3.73;;;;;;;1.29;84.12;101934.31;5068052;28;20571;-73
2021/03/07 00:17:37;;;;;;;6.23;4.13;;;;;;;1.30;84.57;101928.34;5065874;28;20230;-72
2021/03/07 00:20:04;;;;;;;5.23;3.40;;;;;;;1.31;83.92;101930.09;5036263;28;20189;-73
2021/03/07 00:22:30;;;;;;;5.97;3.60;;;;;;;1.32;84.42;101931.84;5061128;28;20195;-71
2021/03/07 00:24:56;;;;;;;4.60;3.47;;;;;;;1.32;84.38;101919.88;5058291;28;20187;-72
2021/03/07 00:27:22;;;;;;;5.57;3.53;;;;;;;1.33;84.50;101925.88;5060580;28;20231;-71
2021/03/07 00:29:48;;;;;;;5.23;3.40;;;;;;;1.33;84.37;101918.16;5067410;28;20286;-72
2021/03/07 00:32:14;;;;;;;5.40;3.90;;;;;;;1.32;84.42;101916.44;5067076;28;20198;-72
2021/03/07 00:34:41;;;;;;;5.03;3.70;;;;;;;1.33;84.69;101907.88;5061061;28;20198;-72
2021/03/07 00:37:08;;;;;;;5.50;3.77;;;;;;;1.33;84.71;101916.47;5066955;28;20194;-72
2021/03/07 00:39:34;;;;;;;4.80;3.23;;;;;;;1.32;84.83;101909.59;5070217;28;20205;-72
2021/03/07 00:42:00;;;;;;;5.50;3.60;;;;;;;1.33;85.21;101903.59;5058382;28;20201;-72
2021/03/07 00:44:27;;;;;;;5.10;4.00;;;;;;;1.32;84.95;101896.75;5068066;28;20253;-73
2021/03/07 00:46:53;;;;;;;6.50;3.77;;;;;;;1.32;84.78;101896.75;5063344;28;20200;-73
2021/03/07 00:49:20;;;;;;;7.03;4.43;;;;;;;1.32;85.07;101886.47;5064369;28;20218;-73
2021/03/07 00:51:47;;;;;;;7.10;4.07;;;;;;;1.32;85.14;101888.16;5068350;28;20210;-72
2021/03/07 00:54:13;;;;;;;6.17;4.30;;;;;;;1.31;85.32;101879.56;5071962;28;20202;-73
2021/03/07 00:56:40;;;;;;;6.77;3.90;;;;;;;1.29;85.34;101883.78;5060247;28;20689;-73
2021/03/07 00:59:05;;;;;;;5.47;3.80;;;;;;;1.29;85.31;101881.22;5065638;28;20315;-73
2021/03/07 01:01:32;;;;;;;7.30;4.20;;;;;;;1.31;85.35;101876.13;5059825;28;20278;-72
2021/03/07 01:03:58;;;;;;;7.47;4.20;;;;;;;1.29;85.54;101852.94;5057342;28;20194;-72
2021/03/07 01:06:24;;;;;;;5.77;4.00;;;;;;;1.29;85.45;101854.66;5067162;28;20199;-73
2021/03/07 01:08:50;;;;;;;7.40;4.73;;;;;;;1.29;85.94;101855.50;5061177;28;20728;-72
2021/03/07 01:11:16;;;;;;;6.17;4.13;;;;;;;1.29;85.73;101852.09;5067405;28;20194;-71
2021/03/07 01:13:43;;;;;;;5.57;4.13;;;;;;;1.31;85.61;101845.28;5061080;28;20222;-71
2021/03/07 01:16:09;;;;;;;6.97;4.30;;;;;;;1.30;85.91;101843.53;5065943;28;20827;-72
2021/03/07 01:18:35;;;;;;;6.27;4.50;;;;;;;1.30;86.16;101841.84;5067166;28;20222;-72
2021/03/07 01:21:02;;;;;;;6.43;4.47;;;;;;;1.29;86.12;101842.66;5064121;28;20251;-73
2021/03/07 01:23:30;;;;;;;8.20;4.77;;;;;;;1.31;86.57;101835.88;5074717;28;20208;-73
2021/03/07 01:25:57;;;;;;;7.87;4.63;;;;;;;1.35;86.27;101828.28;5058573;28;20243;-72
2021/03/07 01:28:23;;;;;;;7.43;4.60;;;;;;;1.34;86.33;101822.28;5056358;28;20722;-71
2021/03/07 01:30:49;;;;;;;6.53;4.57;;;;;;;1.33;86.36;101823.06;5063246;28;20719;-73
2021/03/07 01:33:15;;;;;;;7.60;5.33;;;;;;;1.31;86.18;101824.72;5065957;28;20209;-73
2021/03/07 01:35:41;;;;;;;7.40;4.40;;;;;;;1.32;86.23;101811.94;5072147;28;20713;-72
2021/03/07 01:38:07;;;;;;;9.37;5.20;;;;;;;1.32;86.56;101813.66;5063828;28;20246;-72
2021/03/07 01:40:37;;;;;;;9.30;5.03;;;;;;;1.31;86.36;101809.31;5062102;28;20193;-72
2021/03/07 01:43:05;;;;;;;7.93;4.80;;;;;;;1.33;86.18;101803.38;5058332;28;20194;-71
2021/03/07 01:45:33;;;;;;;7.47;4.77;;;;;;;1.33;86.03;101795.66;5051425;28;20207;-72
2021/03/07 01:48:01;;;;;;;8.63;5.23;;;;;;;1.32;86.08;101788.81;5065820;28;20931;-71
2021/03/07 01:50:29;;;;;;;8.50;5.27;;;;;;;1.33;86.09;101785.38;5055014;28;20187;-72
2021/03/07 01:52:56;;;;;;;9.13;5.40;;;;;;;1.34;86.13;101783.72;5058453;28;20253;-72
2021/03/07 01:55:25;;;;;;;7.53;4.83;;;;;;;1.35;86.20;101782.00;5054057;28;20643;-73
2021/03/07 01:57:59;;;;;;;7.07;4.47;;;;;;;1.34;86.29;101776.00;5071504;28;20229;-73
2021/03/07 02:00:26;;;;;;;9.00;5.10;;;;;;;1.33;86.34;101777.69;5055708;28;20211;-73
2021/03/07 02:02:52;;;;;;;8.43;5.10;;;;;;;1.35;86.15;101774.31;5053849;28;20214;-72
2021/03/07 02:05:20;;;;;;;8.60;4.73;;;;;;;1.33;86.68;101774.25;5055973;28;20202;-71
2021/03/07 02:07:47;;;;;;;7.17;4.63;;;;;;;1.32;86.38;101770.81;5058129;28;20218;-70
2021/03/07 02:10:19;;;;;;;8.63;5.13;;;;;;;1.32;86.68;101763.09;5055330;28;20198;-73
2021/03/07 02:12:48;;;;;;;9.93;4.93;;;;;;;1.32;86.54;101762.25;5056201;28;20218;-73
2021/03/07 02:15:17;;;;;;;8.00;5.07;;;;;;;1.32;86.53;101757.97;5066594;28;20229;-70
2021/03/07 02:17:44;;;;;;;7.33;5.30;;;;;;;1.32;86.57;101757.09;5062177;28;20299;-73
2021/03/07 02:20:13;;;;;;;7.93;5.30;;;;;;;1.33;86.42;101749.41;5055939;28;20249;-72
2021/03/07 02:22:44;;;;;;;8.83;5.30;;;;;;;1.36;86.44;101745.22;5054418;28;20200;-72
2021/03/07 02:25:13;;;;;;;7.77;5.07;;;;;;;1.37;86.18;101746.94;5054535;28;20222;-74
2021/03/07 02:27:40;;;;;;;8.23;5.57;;;;;;;1.39;86.27;101742.72;5072773;28;20229;-70
2021/03/07 02:30:09;;;;;;;8.10;5.00;;;;;;;1.41;86.05;101739.38;5048330;28;20218;-73
2021/03/07 02:32:38;;;;;;;6.50;4.77;;;;;;;1.43;86.27;101734.28;5060869;28;20202;-73
2021/03/07 02:35:08;;;;;;;9.57;5.37;;;;;;;1.42;86.21;101737.69;5063056;28;20589;-72
2021/03/07 02:37:35;;;;;;;12.83;5.50;;;;;;;1.41;86.42;101733.38;5071991;28;20224;-72
2021/03/07 02:40:02;;;;;;;8.23;4.87;;;;;;;1.42;85.76;101720.53;5062594;28;20196;-73
2021/03/07 02:42:32;;;;;;;8.57;5.60;;;;;;;1.44;85.85;101715.44;5058679;28;20263;-72
2021/03/07 02:45:03;;;;;;;6.70;5.27;;;;;;;1.44;85.78;101710.31;5060794;28;20192;-72
2021/03/07 02:47:32;;;;;;;8.00;4.77;;;;;;;1.43;85.55;101708.59;5063567;28;20222;-72
2021/03/07 02:50:01;;;;;;;9.10;5.17;;;;;;;1.42;85.70;101707.69;5059762;28;20194;-73
2021/03/07 02:52:27;;;;;;;9.83;4.57;;;;;;;1.43;85.13;101713.72;5059916;28;20274;-72
2021/03/07 02:54:57;;;;;;;8.93;5.17;;;;;;;1.44;85.30;101718.91;5047034;28;20210;-72
2021/03/07 02:57:26;;;;;;;7.07;4.90;;;;;;;1.43;85.29;101703.44;5070724;28;20821;-72
2021/03/07 02:59:56;;;;;;;7.23;4.73;;;;;;;1.43;85.07;101703.44;5036434;28;20206;-71
2021/03/07 03:02:24;;;;;;;7.87;5.00;;;;;;;1.41;85.23;101699.97;5056450;28;20194;-71
2021/03/07 03:04:51;;;;;;;9.13;4.60;;;;;;;1.40;85.25;101706.78;5062290;28;20205;-69
2021/03/07 03:07:18;;;;;;;7.60;4.73;;;;;;;1.41;85.06;101703.41;5059906;28;20678;-72
2021/03/07 03:09:47;;;;;;;7.50;4.97;;;;;;;1.41;85.13;101694.81;5054158;28;20206;-71
2021/03/07 03:12:15;;;;;;;7.63;4.53;;;;;;;1.39;84.98;101692.22;5065437;28;20557;-72
2021/03/07 03:14:42;;;;;;;7.47;4.50;;;;;;;1.37;85.40;101691.28;5065134;28;20201;-71
2021/03/07 03:17:10;;;;;;;6.23;4.60;;;;;;;1.37;85.40;101692.97;5057023;28;20211;-72
2021/03/07 03:19:37;;;;;;;7.00;4.53;;;;;;;1.36;84.94;101689.53;5063667;28;20234;-72
2021/03/07 03:22:03;;;;;;;7.53;4.97;;;;;;;1.37;85.16;101696.41;5070097;28;20191;-72
2021/03/07 03:24:29;;;;;;;9.17;4.67;;;;;;;1.38;85.11;101690.44;5070197;28;20202;-72
2021/03/07 03:27:01;;;;;;;7.20;4.70;;;;;;;1.36;85.45;101680.97;5062227;28;20237;-73
2021/03/07 03:29:28;;;;;;;7.60;4.63;;;;;;;1.38;85.09;101687.03;5066879;28;20190;-72
2021/03/07 03:31:55;;;;;;;8.07;4.80;;;;;;;1.38;84.84;101684.47;5066074;28;20195;-73
2021/03/07 03:34:23;;;;;;;7.27;4.53;;;;;;;1.39;84.96;101678.47;5051101;28;20636;-70
2021/03/07 03:36:49;;;;;;;8.40;4.60;;;;;;;1.37;85.19;101678.41;5066836;28;20209;-73
2021/03/07 03:39:19;;;;;;;8.40;5.00;;;;;;;1.36;85.05;101675.84;5062114;28;20270;-72
2021/03/07 03:41:47;;;;;;;7.30;4.43;;;;;;;1.37;84.53;101681.00;5053257;28;20191;-72
2021/03/07 03:44:18;;;;;;;8.13;4.70;;;;;;;1.36;84.85;101683.53;5068219;28;20197;-72
2021/03/07 03:46:47;;;;;;;8.47;4.90;;;;;;;1.35;84.76;101682.66;5041364;28;20651;-70
2021/03/07 03:49:17;;;;;;;6.67;4.30;;;;;;;1.33;84.90;101687.75;5052726;28;20218;-74
2021/03/07 03:51:46;;;;;;;9.57;4.70;;;;;;;1.35;84.74;101682.66;5041329;28;20210;-72
2021/03/07 03:54:13;;;;;;;7.60;4.53;;;;;;;1.35;84.34;101685.22;5066249;28;20208;-72
2021/03/07 03:56:39;;;;;;;6.57;4.10;;;;;;;1.35;84.65;101680.09;5059844;28;20232;-71
2021/03/07 03:59:07;;;;;;;9.60;5.03;;;;;;;1.34;84.88;101680.94;5069854;28;20212;-72
2021/03/07 04:01:36;;;;;;;6.83;4.33;;;;;;;1.32;84.79;101680.88;5064425;28;20195;-72
2021/03/07 04:04:03;;;;;;;6.27;4.13;;;;;;;1.32;84.90;101674.88;5073096;28;20202;-72
2021/03/07 04:06:30;;;;;;;8.50;4.40;;;;;;;1.32;84.66;101675.75;5067351;28;20205;-72
2021/03/07 04:08:57;;;;;;;7.90;5.07;;;;;;;1.32;84.49;101672.31;5065696;28;20306;-73
2021/03/07 04:11:24;;;;;;;7.37;4.70;;;;;;;1.32;84.64;101677.44;5065487;28;20206;-72
2021/03/07 04:13:52;;;;;;;6.70;4.13;;;;;;;1.32;84.85;101675.75;5070199;28;20199;-71
2021/03/07 04:16:18;;;;;;;6.53;4.20;;;;;;;1.32;84.49;101675.75;5047338;28;20563;-72
2021/03/07 04:18:46;;;;;;;7.73;3.87;;;;;;;1.34;84.31;101678.34;5068657;28;20222;-72
2021/03/07 04:21:12;;;;;;;6.90;3.80;;;;;;;1.33;84.63;101669.75;5072711;28;20624;-71
2021/03/07 04:23:38;;;;;;;6.33;4.47;;;;;;;1.31;84.41;101666.28;5067675;28;20579;-73
2021/03/07 04:26:06;;;;;;;6.33;4.03;;;;;;;1.32;84.48;101668.03;5063540;28;20281;-71
2021/03/07 04:28:32;;;;;;;8.43;4.63;;;;;;;1.33;83.90;101663.75;5067921;28;20719;-72
2021/03/07 04:30:58;;;;;;;6.23;4.27;;;;;;;1.34;83.81;101665.50;5071110;28;20697;-72
2021/03/07 04:33:25;;;;;;;6.50;4.10;;;;;;;1.34;83.48;101662.94;5072678;28;20231;-72
2021/03/07 04:35:51;;;;;;;6.10;4.00;;;;;;;1.36;83.43;101660.41;5064932;28;20823;-72
2021/03/07 04:38:17;;;;;;;5.40;3.63;;;;;;;1.36;83.57;101657.84;5069743;28;20226;-71
2021/03/07 04:40:43;;;;;;;6.43;3.50;;;;;;;1.36;83.63;101657.84;5070671;28;20820;-72
2021/03/07 04:43:10;;;;;;;5.90;3.83;;;;;;;1.33;83.32;101654.34;5052078;28;20198;-71
2021/03/07 04:45:36;;;;;;;5.47;3.83;;;;;;;1.33;83.58;101656.03;5063343;28;20199;-72
2021/03/07 04:48:03;;;;;;;5.63;3.70;;;;;;;1.34;83.54;101662.94;5059625;28;20212;-71
2021/03/07 04:50:54;;;;;;;7.37;3.70;;;;;;;1.34;83.20;101655.22;5068583;28;20571;-72
2021/03/07 04:53:20;;;;;;;5.93;3.60;;;;;;;1.33;83.27;101662.03;5056474;28;20207;-71
2021/03/07 04:55:46;;;;;;;5.40;3.60;;;;;;;1.32;83.21;101655.19;5055800;28;20237;-70
2021/03/07 04:58:13;;;;;;;7.83;3.90;;;;;;;1.33;83.07;101653.47;5062694;28;20719;-71
2021/03/07 05:00:39;;;;;;;6.40;3.50;;;;;;;1.35;82.84;101656.94;5067538;28;22696;-72
2021/03/07 05:03:05;;;;;;;5.73;3.33;;;;;;;1.33;82.70;101656.03;5060489;28;20205;-71
2021/03/07 05:05:31;;;;;;;5.97;3.93;;;;;;;1.33;82.96;101654.34;5057945;28;20648;-73
2021/03/07 05:07:57;;;;;;;6.20;3.70;;;;;;;1.33;82.98;101651.75;5062996;28;20218;-72
2021/03/07 05:10:23;;;;;;;7.00;4.50;;;;;;;1.30;83.36;101646.56;5064287;28;20203;-71
2021/03/07 05:12:49;;;;;;;4.60;3.17;;;;;;;1.31;82.95;101650.84;5062124;28;20205;-71
2021/03/07 05:15:16;;;;;;;4.83;3.60;;;;;;;1.30;83.48;101645.66;5066129;28;20222;-71
2021/03/07 05:17:42;;;;;;;4.70;3.23;;;;;;;1.28;83.14;101642.19;5065062;28;20293;-72
2021/03/07 05:20:10;;;;;;;5.60;3.70;;;;;;;1.28;83.29;101640.47;5059250;28;20252;-72
2021/03/07 05:22:36;;;;;;;5.47;3.70;;;;;;;1.27;83.31;101646.47;5044609;28;20685;-71
2021/03/07 05:25:02;;;;;;;6.00;4.10;;;;;;;1.26;83.20;101646.41;5063431;28;20190;-72
2021/03/07 05:27:28;;;;;;;5.27;3.47;;;;;;;1.26;83.28;101642.16;5041865;28;20736;-71
2021/03/07 05:29:54;;;;;;;5.60;3.60;;;;;;;1.25;83.21;101640.41;5055555;28;20201;-70
2021/03/07 05:32:21;;;;;;;4.50;3.50;;;;;;;1.24;83.27;101633.53;5060362;28;20220;-73
2021/03/07 05:34:47;;;;;;;5.23;3.77;;;;;;;1.24;83.09;101636.09;5059199;28;20198;-72
2021/03/07 05:37:13;;;;;;;5.07;3.17;;;;;;;1.22;83.57;101635.19;5067259;28;20304;-72
2021/03/07 05:39:38;;;;;;;5.90;3.97;;;;;;;1.23;83.23;101636.94;5061579;28;20221;-71
2021/03/07 05:42:05;;;;;;;5.30;3.80;;;;;;;1.23;83.12;101634.38;5063299;28;20187;-72
2021/03/07 05:44:32;;;;;;;6.17;4.03;;;;;;;1.22;83.50;101630.06;5065203;28;20195;-72
2021/03/07 05:46:58;;;;;;;6.30;3.80;;;;;;;1.22;83.47;101634.31;5065617;28;20193;-71
2021/03/07 05:49:25;;;;;;;5.83;4.10;;;;;;;1.21;83.27;101627.44;5063110;28;20662;-71
2021/03/07 05:51:51;;;;;;;8.10;3.70;;;;;;;1.20;83.54;101625.72;5072367;28;20205;-71
2021/03/07 05:54:18;;;;;;;6.00;3.27;;;;;;;1.23;83.10;101625.78;5068599;28;20197;-71
2021/03/07 05:56:48;;;;;;;4.27;3.13;;;;;;;1.25;83.43;101626.69;5068259;28;20268;-71
2021/03/07 05:59:15;;;;;;;8.23;3.83;;;;;;;1.22;83.70;101619.78;5060527;28;20206;-72
2021/03/07 06:01:41;;;;;;;6.83;4.13;;;;;;;1.22;83.92;101624.91;5060550;28;20293;-73
2021/03/07 06:04:07;;;;;;;6.30;3.60;;;;;;;1.24;83.37;101632.66;5074421;28;20272;-72
2021/03/07 06:06:34;;;;;;;6.83;3.70;;;;;;;1.24;83.96;101625.81;5059332;28;20199;-71
2021/03/07 06:09:17;;;;;;;5.27;3.63;;;;;;;1.25;83.88;101619.88;5065466;28;20253;-72
2021/03/07 06:11:44;;;;;;;8.57;3.97;;;;;;;1.27;83.97;101619.91;5058268;28;20252;-71
2021/03/07 06:14:18;;;;;;;6.53;3.83;;;;;;;1.26;83.68;101621.59;5067010;28;20615;-71
2021/03/07 06:17:01;;;;;;;6.43;3.67;;;;;;;1.28;83.63;101617.34;5062844;28;20245;-72
2021/03/07 06:19:27;;;;;;;6.70;3.80;;;;;;;1.31;83.59;101622.59;5079263;28;20224;-70
2021/03/07 06:21:54;;;;;;;5.73;3.77;;;;;;;1.31;83.95;101614.88;5057554;28;20258;-70
2021/03/07 06:24:35;;;;;;;5.43;3.53;;;;;;;1.35;83.80;101607.25;5074178;28;20194;-71
2021/03/07 06:27:06;;;;;;;6.53;3.37;;;;;;;1.36;83.93;101609.88;5049107;28;20205;-73
2021/03/07 06:29:32;;;;;;;6.07;4.20;;;;;;;1.37;84.20;101603.91;5069694;28;20280;-72
2021/03/07 06:31:58;;;;;;;6.97;4.23;;;;;;;1.38;83.97;101607.34;5063806;28;20193;-72
2021/03/07 06:34:24;;;;;;;6.03;3.80;;;;;;;1.40;83.75;101609.13;5070997;28;20248;-72
2021/03/07 06:37:03;;;;;;;6.37;4.00;;;;;;;1.43;83.81;101611.78;5064871;28;20692;-72
2021/03/07 06:39:29;;;;;;;6.07;4.10;;;;;;;1.44;84.08;101612.66;5062780;28;20205;-73
2021/03/07 06:42:00;;;;;;;6.43;4.27;;;;;;;1.45;83.79;101616.97;5041520;28;20442;-71
2021/03/07 06:44:26;;;;;;;5.87;3.87;;;;;;;1.47;83.41;101613.59;5064126;28;20578;-72
2021/03/07 06:46:52;;;;;;;7.13;4.03;;;;;;;1.50;83.38;101612.81;5055542;28;20729;-71
2021/03/07 06:49:23;;;;;;;6.27;4.17;;;;;;;1.52;83.42;101622.31;5065074;28;20295;-70
2021/03/07 06:51:49;;;;;;;6.37;3.80;;;;;;;1.56;83.31;101617.25;5071804;28;20285;-70
2021/03/07 06:54:18;;;;;;;5.47;3.83;;;;;;;1.57;83.04;101614.72;5079688;28;20760;-70
2021/03/07 06:56:46;;;;;;;5.93;3.70;;;;;;;1.59;82.05;101622.50;5062155;28;20206;-72
2021/03/07 06:59:16;;;;;;;4.80;3.70;;;;;;;1.62;82.53;101615.72;5067965;28;20239;-72
2021/03/07 07:01:44;;;;;;;5.33;3.80;;;;;;;1.65;82.64;101615.81;5064659;28;20703;-72
2021/03/07 07:04:11;;;;;;;4.00;3.30;;;;;;;1.67;82.71;101616.72;5062046;28;20203;-71
2021/03/07 07:06:39;;;;;;;5.57;3.70;;;;;;;1.70;82.35;101619.34;5066539;28;20193;-70
2021/03/07 07:09:06;;;;;;;5.80;3.70;;;;;;;1.73;82.26;101615.13;5072319;28;20217;-72
2021/03/07 07:11:42;;;;;;;7.63;3.93;;;;;;;1.73;82.07;101616.00;5065874;28;20241;-71
2021/03/07 07:14:09;;;;;;;5.30;3.43;;;;;;;1.74;81.84;101611.72;5072028;28;20201;-72
2021/03/07 07:16:35;;;;;;;8.33;3.70;;;;;;;1.78;81.83;101609.28;5067530;28;20288;-71
2021/03/07 07:19:03;;;;;;;6.13;4.17;;;;;;;1.78;81.46;101609.28;5076070;28;20259;-71
2021/03/07 07:21:29;;;;;;;6.37;3.30;;;;;;;1.79;81.23;101613.56;5069422;28;20195;-70
2021/03/07 07:23:55;;;;;;;4.07;2.93;;;;;;;1.80;80.13;101614.47;5066534;28;20215;-69
2021/03/07 07:26:21;;;;;;;4.70;3.13;;;;;;;1.82;80.34;101611.09;5071147;28;20191;-71
2021/03/07 07:28:48;;;;;;;5.10;3.27;;;;;;;1.83;79.83;101609.38;5056919;28;20269;-71
2021/03/07 07:31:17;;;;;;;5.77;3.53;;;;;;;1.84;79.79;101613.69;5069195;28;20716;-71
2021/03/07 07:33:48;;;;;;;4.90;2.90;;;;;;;1.84;79.44;101608.56;5061296;28;20780;-73
2021/03/07 07:36:22;;;;;;;3.90;3.00;;;;;;;1.85;78.98;101606.03;5049401;28;20609;-71
2021/03/07 07:38:49;;;;;;;3.60;2.80;;;;;;;1.83;78.05;101610.28;5069661;28;20589;-71
2021/03/07 07:41:34;;;;;;;3.30;2.60;;;;;;;1.84;76.89;101608.56;5063135;28;20352;-72
2021/03/07 07:44:03;;;;;;;3.27;2.23;;;;;;;1.84;75.33;101609.41;5071612;28;20194;-73
2021/03/07 07:46:29;;;;;;;3.17;2.20;;;;;;;1.85;75.20;101603.47;5059882;28;20679;-72
2021/03/07 07:48:56;;;;;;;3.20;2.43;;;;;;;1.89;73.84;101614.69;5069768;28;20267;-72
2021/03/07 07:51:37;;;;;;;2.43;2.20;;;;;;;1.94;74.76;101612.25;5050302;28;20241;-72
2021/03/07 07:54:06;;;;;;;4.23;3.43;;;;;;;1.96;74.76;101605.44;5072069;28;20191;-72
2021/03/07 07:56:36;;;;;;;4.47;3.33;;;;;;;1.99;74.60;101608.09;5061283;28;20293;-71
2021/03/07 07:59:04;;;;;;;4.27;2.73;;;;;;;2.03;75.13;101607.31;5059687;28;20214;-73
2021/03/07 08:01:54;;;;;;;3.67;3.00;;;;;;;2.04;74.03;101611.63;5063940;28;20566;-72
2021/03/07 08:04:41;;;;;;;3.73;2.63;;;;;;;2.04;73.60;101602.22;5048463;28;20256;-72
2021/03/07 08:07:09;;;;;;;4.17;2.43;;;;;;;2.04;71.21;101627.06;5058167;28;20289;-70
2021/03/07 08:09:40;;;;;;;2.87;2.00;;;;;;;2.08;71.43;101609.16;5041033;28;20198;-70
2021/03/07 08:12:44;;;;;;;3.70;2.37;;;;;;;2.10;71.94;101614.34;5065640;28;20279;-73
2021/03/07 08:15:41;;;;;;;5.20;2.20;;;;;;;2.10;73.06;101608.34;5069947;28;20198;-71
2021/03/07 08:18:08;;;;;;;5.37;2.37;;;;;;;2.02;71.08;101611.59;5075006;28;20692;-72
2021/03/07 08:20:59;;;;;;;3.57;2.10;;;;;;;2.02;72.00;101613.28;5065017;28;20203;-71
2021/03/07 08:23:25;;;;;;;3.07;2.50;;;;;;;2.06;71.83;101605.69;5065534;28;20656;-72
2021/03/07 08:25:59;;;;;;;3.20;2.00;;;;;;;2.08;70.06;101598.00;5058957;28;20197;-71
2021/03/07 08:28:42;;;;;;;3.87;2.27;;;;;;;2.06;68.49;101615.13;5074740;28;20329;-73
2021/03/07 08:31:34;;;;;;;4.53;2.37;;;;;;;2.13;68.45;101611.88;5044331;28;20581;-70
2021/03/07 08:34:23;;;;;;;1.87;1.60;;;;;;;2.12;67.56;101604.97;5061498;28;20566;-71
2021/03/07 08:36:58;;;;;;;4.40;2.77;;;;;;;2.22;69.58;101596.63;5054112;28;20285;-71
2021/03/07 08:39:25;;;;;;;3.57;2.73;;;;;;;2.25;67.58;101607.00;5062662;28;20206;-71
2021/03/07 08:42:01;;;;;;;5.43;4.13;;;;;;;2.29;67.39;101600.22;5065367;28;20195;-70
2021/03/07 08:44:28;;;;;;;8.03;5.53;;;;;;;2.34;67.38;101596.06;5062975;28;20341;-72
2021/03/07 08:46:55;;;;;;;21.07;12.03;;;;;;;2.37;67.33;101596.09;5065686;28;20225;-71
2021/03/07 08:49:25;;;;;;;5.67;2.60;;;;;;;2.40;67.55;101591.03;5042677;28;20215;-71
2021/03/07 08:51:58;;;;;;;2.30;1.90;;;;;;;2.41;67.24;101599.63;5069666;28;20218;-72
2021/03/07 08:54:26;;;;;;;8.73;6.20;;;;;;;2.32;64.70;101589.97;5068340;28;20685;-72
2021/03/07 08:56:53;;;;;;;6.30;3.70;;;;;;;2.27;64.89;101596.75;5054246;28;20210;-72
2021/03/07 08:59:25;;;;;;;4.33;2.57;;;;;;;2.27;64.76;101584.75;5049343;28;20222;-72
2021/03/07 09:01:52;;;;;;;3.00;2.60;;;;;;;2.34;65.67;101590.91;5054149;28;20199;-73
2021/03/07 09:04:19;;;;;;;3.03;2.37;;;;;;;2.38;65.57;101586.72;5076279;28;20766;-73
2021/03/07 09:06:46;;;;;;;2.93;2.50;;;;;;;2.45;65.82;101586.88;5068947;28;20191;-70
2021/03/07 09:09:15;;;;;;;7.17;4.77;;;;;;;2.43;65.01;101588.53;5067695;28;20214;-73
2021/03/07 09:11:50;;;;;;;1.90;1.77;;;;;;;2.34;64.05;101592.59;5050208;28;20321;-70
2021/03/07 09:14:17;;;;;;;5.73;3.03;;;;;;;2.24;64.73;101581.25;5064745;28;20198;-71
2021/03/07 09:16:45;;;;;;;2.70;2.20;;;;;;;2.26;64.60;101571.84;5061653;28;20207;-70
2021/03/07 09:19:27;;;;;;;1.87;1.73;;;;;;;2.32;65.24;101579.69;5059017;28;20283;-73
2021/03/07 09:22:08;;;;;;;2.87;1.93;;;;;;;2.27;64.02;101574.47;5063977;28;20191;-73
2021/03/07 09:24:34;;;;;;;2.37;1.70;;;;;;;2.28;63.86;101583.91;5074860;28;20208;-72
2021/03/07 09:27:08;;;;;;;1.63;1.40;;;;;;;2.25;64.16;101581.28;5070303;28;20239;-69
2021/03/07 09:29:34;;;;;;;1.70;1.50;;;;;;;2.26;65.50;101572.69;5065027;28;20190;-71
2021/03/07 09:32:00;;;;;;;1.93;1.43;;;;;;;2.31;64.56;101583.13;5053554;28;20187;-72
2021/03/07 09:34:32;;;;;;;2.93;1.70;;;;;;;2.23;63.61;101576.91;5061040;28;20233;-72
2021/03/07 09:36:58;;;;;;;3.17;1.50;;;;;;;2.34;64.46;101583.19;5067188;28;20228;-72
2021/03/07 09:39:25;;;;;;;2.07;1.60;;;;;;;2.40;65.07;101572.16;5064190;28;20198;-73
2021/03/07 09:41:52;;;;;;;1.50;1.40;;;;;;;2.35;63.19;101578.91;5067476;28;20199;-69
2021/03/07 09:44:21;;;;;;;2.40;1.63;;;;;;;2.33;64.22;101571.16;5067054;28;20759;-72
2021/03/07 09:46:48;;;;;;;1.63;1.40;;;;;;;2.34;64.26;101569.44;5073264;28;20209;-71
2021/03/07 09:49:20;;;;;;;1.67;1.57;;;;;;;2.36;64.56;101566.06;5066663;28;20242;-73
2021/03/07 09:51:50;;;;;;;3.10;1.50;;;;;;;2.40;63.70;101561.88;5063147;28;20265;-73
2021/03/07 09:54:18;;;;;;;3.30;1.63;;;;;;;2.49;63.57;101572.34;5047018;28;20225;-72
2021/03/07 09:56:46;;;;;;;3.60;2.03;;;;;;;2.51;64.13;101568.09;5048430;28;20620;-72
2021/03/07 09:59:14;;;;;;;3.03;1.63;;;;;;;2.49;63.34;101562.06;5067235;28;20329;-72
2021/03/07 10:01:43;;;;;;;1.60;1.50;;;;;;;2.47;62.57;101564.59;5069224;28;20226;-72
2021/03/07 10:04:31;;;;;;;1.93;1.73;;;;;;;2.50;62.67;101566.38;5064288;28;20195;-73
2021/03/07 10:06:59;;;;;;;2.00;1.50;;;;;;;2.55;62.83;101563.91;5063908;28;20199;-71
2021/03/07 10:09:27;;;;;;;3.03;1.47;;;;;;;2.47;62.63;101558.59;5065015;28;20199;-71
2021/03/07 10:11:59;;;;;;;2.00;1.70;;;;;;;2.52;63.59;101553.56;5065922;28;20219;-73
2021/03/07 10:14:27;;;;;;;3.90;1.60;;;;;;;2.63;64.70;101568.38;5068518;28;20685;-72
2021/03/07 10:16:54;;;;;;;2.70;1.97;;;;;;;2.70;63.77;101565.94;5069868;28;20289;-73
2021/03/07 10:19:20;;;;;;;2.60;1.97;;;;;;;2.73;63.33;101569.47;5074066;28;20222;-72
2021/03/07 10:21:47;;;;;;;3.17;2.07;;;;;;;2.63;62.67;101562.38;5058962;28;20198;-70
2021/03/07 10:24:17;;;;;;;1.97;1.77;;;;;;;2.68;62.94;101562.47;5063413;28;20191;-73
2021/03/07 10:26:44;;;;;;;1.77;1.63;;;;;;;2.68;62.55;101555.59;5076188;28;20249;-73
2021/03/07 10:29:29;;;;;;;1.67;1.50;;;;;;;2.69;62.24;101556.47;5060612;28;20227;-71
2021/03/07 10:32:18;;;;;;;2.40;1.97;;;;;;;2.81;63.70;101562.78;5065001;28;20636;-71
2021/03/07 10:34:45;;;;;;;3.07;1.70;;;;;;;2.76;63.00;101563.50;5061259;28;20279;-73
2021/03/07 10:37:33;;;;;;;2.10;1.87;;;;;;;2.71;62.98;101560.84;5057282;28;20218;-71
2021/03/07 10:40:00;;;;;;;1.63;1.37;;;;;;;2.75;62.88;101560.06;5057143;28;20201;-72
2021/03/07 10:42:31;;;;;;;4.00;1.67;;;;;;;2.66;63.20;101557.28;5061547;28;20295;-71
2021/03/07 10:45:12;;;;;;;3.27;1.80;;;;;;;2.70;63.52;101553.06;5045685;28;20214;-73
2021/03/07 10:47:38;;;;;;;3.33;1.97;;;;;;;2.74;63.10;101555.72;5068106;28;20234;-72
2021/03/07 10:50:05;;;;;;;4.23;2.10;;;;;;;2.82;62.30;101561.06;5040790;28;20199;-72
2021/03/07 10:52:31;;;;;;;2.27;1.50;;;;;;;2.82;62.35;101553.31;5046148;28;20209;-71
2021/03/07 10:54:57;;;;;;;3.80;1.90;;;;;;;2.75;61.80;101561.75;5057367;28;20806;-72
2021/03/07 10:57:24;;;;;;;1.53;1.37;;;;;;;2.75;62.86;101554.91;5059776;28;20367;-72
2021/03/07 10:59:51;;;;;;;1.87;1.50;;;;;;;2.81;62.45;101552.47;5059600;28;20195;-72
2021/03/07 11:02:18;;;;;;;2.57;1.60;;;;;;;2.90;62.02;101553.47;5070527;28;20198;-70
2021/03/07 11:04:45;;;;;;;3.47;1.70;;;;;;;2.93;62.41;101549.25;5059340;28;20271;-72
2021/03/07 11:07:11;;;;;;;2.17;1.43;;;;;;;2.84;61.39;101565.38;5071887;28;20273;-71
2021/03/07 11:09:37;;;;;;;2.30;1.47;;;;;;;2.72;61.44;101559.13;5054792;28;20282;-72
2021/03/07 11:12:03;;;;;;;4.07;1.60;;;;;;;2.82;62.63;101546.47;5061475;28;20273;-72
2021/03/07 11:14:30;;;;;;;2.93;1.57;;;;;;;2.95;62.34;101547.56;5062518;28;20217;-72
2021/03/07 11:16:56;;;;;;;2.90;1.83;;;;;;;2.89;61.82;101551.75;5065752;28;20213;-71
2021/03/07 11:19:22;;;;;;;3.03;1.63;;;;;;;2.88;62.24;101547.44;5058089;28;20254;-72
2021/03/07 11:21:48;;;;;;;2.73;1.67;;;;;;;2.85;62.51;101537.94;5072413;28;20205;-71
2021/03/07 11:24:14;;;;;;;3.97;2.10;;;;;;;2.86;62.75;101537.09;5066672;28;20291;-71
2021/03/07 11:26:40;;;;;;;2.00;1.67;;;;;;;2.79;62.70;101525.78;5053662;28;20734;-72
2021/03/07 11:29:06;;;;;;;2.33;1.90;;;;;;;2.73;62.38;101528.25;5062300;28;20215;-73
2021/03/07 11:31:33;;;;;;;2.10;1.60;;;;;;;2.69;61.82;101538.44;5038426;28;20213;-70
2021/03/07 11:33:59;;;;;;;1.77;1.67;;;;;;;2.73;63.20;101519.66;5059072;28;20444;-71
2021/03/07 11:36:25;;;;;;;3.17;2.07;;;;;;;2.74;62.93;101511.94;5047095;28;20272;-71
2021/03/07 11:38:51;;;;;;;2.17;1.73;;;;;;;2.72;63.32;101505.91;5069085;28;20357;-71
2021/03/07 11:41:17;;;;;;;2.67;1.80;;;;;;;2.69;63.29;101505.84;5062118;28;20281;-71